Terminal Aerodrome Forecast
Issued by NWS

Current Version | Previous Version | Graphics & Text | Print | Product List | Glossary On
Versions: 1 2 3 4 5 6 7 8 9 10 11 12 13 14 15 16 17 18 19 20 21
000
FTUS41 KRLX 210529
TAFCKB
TAF
KCKB 210529Z 2106/2206 00000KT P6SM OVC035
     FM210700 00000KT 5SM BR OVC020
     FM210900 00000KT 5SM BR SCT006 OVC015
     FM211200 VRB04KT 6SM BR OVC010
     FM211700 32005KT P6SM BKN020
     FM212000 30005KT P6SM BKN040=

USA.gov is the U.S. government's official web portal to all federal, state and local government web resources and services.